createdAt,value
2019-02-27T00:02:26.632Z,52.90
2019-02-27T00:05:33.046Z,53.16
2019-02-27T00:08:39.431Z,52.68
2019-02-27T00:11:46.883Z,53.39
2019-02-27T00:14:53.411Z,53.73
2019-02-27T00:17:59.870Z,54.13
2019-02-27T00:21:10.280Z,54.64
2019-02-27T00:24:14.744Z,53.83
2019-02-27T00:27:21.102Z,54.14
2019-02-27T00:30:27.977Z,54.71
2019-02-27T00:33:34.468Z,54.83
2019-02-27T00:36:44.889Z,54.92
2019-02-27T00:39:48.860Z,55.04
2019-02-27T00:42:55.193Z,55.11
2019-02-27T00:46:01.669Z,55.19
2019-02-27T00:49:08.240Z,55.27
2019-02-27T00:52:18.031Z,55.07
2019-02-27T00:55:22.664Z,55.73
2019-02-27T00:58:29.060Z,55.36
2019-02-27T01:01:35.414Z,55.80
2019-02-27T01:04:41.853Z,55.58
2019-02-27T01:07:48.304Z,55.81
2019-02-27T01:10:54.932Z,56.12
2019-02-27T01:14:03.737Z,55.85
2019-02-27T01:17:09.393Z,56.09
2019-02-27T01:20:15.822Z,56.31
2019-02-27T01:23:22.230Z,56.63
2019-02-27T01:26:30.912Z,56.31
2019-02-27T01:29:37.349Z,56.15
2019-02-27T01:32:43.904Z,56.14
2019-02-27T01:35:52.250Z,56.65
2019-02-27T01:38:59.360Z,56.18
2019-02-27T01:42:05.699Z,56.31
2019-02-27T01:45:14.798Z,56.70
2019-02-27T01:48:21.187Z,56.60
2019-02-27T01:51:28.242Z,57.34
2019-02-27T01:54:35.264Z,57.96
2019-02-27T01:57:41.627Z,57.67
2019-02-27T02:00:48.025Z,58.07
2019-02-27T02:03:54.399Z,57.69
2019-02-27T02:07:00.749Z,57.93
2019-02-27T02:10:10.713Z,57.85
2019-02-27T02:13:31.281Z,58.28
2019-02-27T02:17:24.964Z,58.17
2019-02-27T02:20:48.440Z,58.38
2019-02-27T02:24:21.677Z,58.01
2019-02-27T02:27:51.640Z,58.67
2019-02-27T02:31:21.458Z,59.30
2019-02-27T02:34:52.176Z,59.91
2019-02-27T02:38:51.793Z,60.18
2019-02-27T02:42:11.755Z,60.57
2019-02-27T02:45:33.069Z,60.92
2019-02-27T02:49:17.754Z,61.18
2019-02-27T02:52:54.470Z,61.62
2019-02-27T02:56:23.928Z,61.93
2019-02-27T03:00:00.144Z,62.28
2019-02-27T03:03:59.214Z,62.48
2019-02-27T03:07:31.389Z,63.31
2019-02-27T03:11:02.538Z,63.80
2019-02-27T03:14:27.655Z,64.35
2019-02-27T03:18:05.847Z,64.70
2019-02-27T03:22:03.266Z,65.12
2019-02-27T03:25:30.803Z,65.69
2019-02-27T03:29:18.484Z,66.37
2019-02-27T03:32:43.895Z,66.71
2019-02-27T03:36:23.532Z,67.29
2019-02-27T03:40:01.416Z,67.22
2019-02-27T03:43:45.628Z,67.55
2019-02-27T03:47:26.215Z,67.85
2019-02-27T03:51:03.174Z,68.01
2019-02-27T03:54:56.992Z,67.92
2019-02-27T03:58:09.137Z,65.98
2019-02-27T04:02:05.897Z,67.31
2019-02-27T04:05:58.303Z,68.71
2019-02-27T04:09:08.804Z,69.06
2019-02-27T04:12:16.416Z,69.70
2019-02-27T04:15:23.390Z,70.64
2019-02-27T04:18:28.612Z,70.29
2019-02-27T04:21:35.084Z,70.51
2019-02-27T04:24:41.561Z,70.96
2019-02-27T04:27:47.824Z,70.66
2019-02-27T04:30:55.712Z,71.22
2019-02-27T04:34:02.042Z,71.30
2019-02-27T04:37:09.798Z,72.33
2019-02-27T04:40:16.122Z,72.63
2019-02-27T04:43:22.997Z,72.16
2019-02-27T04:46:30.564Z,72.64
2019-02-27T04:49:37.861Z,72.82
2019-02-27T04:52:44.928Z,72.79
2019-02-27T04:55:51.377Z,73.33
2019-02-27T04:58:57.682Z,72.82
2019-02-27T05:02:04.069Z,72.89
2019-02-27T05:05:10.419Z,73.02
2019-02-27T05:08:16.723Z,73.27
2019-02-27T05:11:23.067Z,71.70
2019-02-27T05:14:29.455Z,71.83
2019-02-27T05:17:35.901Z,72.73
2019-02-27T05:20:44.917Z,72.19
2019-02-27T05:23:50.419Z,72.80
2019-02-27T05:27:00.824Z,72.63
2019-02-27T05:30:06.877Z,73.57
2019-02-27T05:33:14.371Z,73.80
2019-02-27T05:36:20.688Z,73.71
2019-02-27T05:39:27.258Z,74.62
2019-02-27T05:42:34.147Z,75.24
2019-02-27T05:45:40.465Z,75.32
2019-02-27T05:48:46.830Z,74.69
2019-02-27T05:51:53.302Z,74.96
2019-02-27T05:54:59.575Z,75.87
2019-02-27T05:58:06.114Z,76.44
2019-02-27T06:01:12.431Z,75.76
2019-02-27T06:04:18.911Z,76.80
2019-02-27T06:07:25.324Z,76.56
2019-02-27T06:10:31.609Z,76.62
2019-02-27T06:13:38.943Z,76.17
2019-02-27T06:16:45.352Z,76.31
2019-02-27T06:19:51.823Z,76.74
2019-02-27T06:22:58.190Z,77.47
2019-02-27T06:26:04.530Z,76.84
2019-02-27T06:29:11.045Z,77.13
2019-02-27T06:32:17.413Z,77.40
2019-02-27T06:35:24.276Z,77.68
2019-02-27T06:38:30.620Z,77.00
2019-02-27T06:41:37.223Z,77.51
2019-02-27T06:44:43.697Z,77.74
2019-02-27T06:47:50.129Z,77.74
2019-02-27T06:50:58.328Z,78.23
2019-02-27T06:54:04.930Z,78.16
2019-02-27T06:57:11.375Z,77.75
2019-02-27T07:00:18.964Z,78.30
2019-02-27T07:03:29.230Z,78.93
2019-02-27T07:06:34.051Z,79.38
2019-02-27T07:09:40.312Z,79.33
2019-02-27T07:12:46.959Z,78.76
2019-02-27T07:15:55.546Z,79.09
2019-02-27T07:19:01.462Z,79.41
2019-02-27T07:22:08.911Z,78.81
2019-02-27T07:25:16.012Z,78.35
2019-02-27T07:28:22.429Z,78.76
2019-02-27T07:31:28.918Z,78.52
2019-02-27T07:34:35.185Z,78.25
2019-02-27T07:37:41.806Z,78.10
2019-02-27T07:40:48.319Z,77.81
2019-02-27T07:43:54.903Z,77.52
2019-02-27T07:47:01.242Z,76.96
2019-02-27T07:50:09.118Z,76.90
2019-02-27T07:53:17.675Z,76.73
2019-02-27T07:56:23.774Z,76.32
2019-02-27T07:59:30.275Z,76.98
2019-02-27T08:02:36.841Z,76.69
2019-02-27T08:05:43.208Z,76.37
2019-02-27T08:08:49.682Z,76.48
2019-02-27T08:11:56.037Z,76.21
2019-02-27T08:15:02.552Z,75.59
2019-02-27T08:18:09.075Z,75.58
2019-02-27T08:21:15.637Z,74.61
2019-02-27T08:24:22.748Z,74.46
2019-02-27T08:27:30.484Z,73.75
2019-02-27T08:30:36.813Z,73.85
2019-02-27T08:33:43.428Z,73.72
2019-02-27T08:36:49.695Z,72.76
2019-02-27T08:39:56.424Z,71.70
2019-02-27T08:43:02.971Z,71.05
2019-02-27T08:46:09.633Z,69.90
2019-02-27T08:49:16.000Z,69.14
2019-02-27T08:52:22.611Z,67.88
2019-02-27T08:55:28.872Z,66.66
2019-02-27T08:58:35.373Z,65.17
2019-02-27T09:01:43.320Z,64.59
2019-02-27T09:04:49.952Z,64.45
2019-02-27T09:07:56.587Z,63.47
2019-02-27T09:11:06.589Z,62.55
2019-02-27T09:14:12.045Z,61.92
2019-02-27T09:17:20.259Z,63.09
2019-02-27T09:20:26.508Z,63.57
2019-02-27T09:23:33.072Z,64.64
2019-02-27T09:26:39.399Z,63.35
2019-02-27T09:29:45.790Z,62.48
2019-02-27T09:32:52.118Z,62.78
2019-02-27T09:35:58.695Z,63.60
2019-02-27T09:39:06.469Z,62.76
2019-02-27T09:42:13.794Z,64.48
2019-02-27T09:45:31.192Z,65.02
2019-02-27T09:48:37.757Z,65.02
2019-02-27T09:51:44.129Z,65.15
2019-02-27T09:54:52.137Z,65.29
2019-02-27T09:57:58.469Z,65.58
2019-02-27T10:01:16.618Z,66.40
2019-02-27T10:04:22.964Z,66.41
2019-02-27T10:07:29.364Z,65.75
2019-02-27T10:10:35.702Z,66.57
2019-02-27T10:13:43.010Z,66.72
2019-02-27T10:16:49.344Z,67.23
2019-02-27T10:19:55.729Z,67.62
2019-02-27T10:23:02.166Z,67.13
2019-02-27T10:26:09.100Z,67.02
2019-02-27T10:29:15.519Z,66.91
2019-02-27T10:32:22.392Z,66.40
2019-02-27T10:35:29.388Z,66.77
2019-02-27T10:38:40.249Z,66.52
2019-02-27T10:41:44.954Z,66.27
2019-02-27T10:44:51.868Z,64.79
2019-02-27T10:47:59.541Z,62.86
2019-02-27T10:51:09.549Z,60.45
2019-02-27T10:54:15.148Z,59.57
2019-02-27T10:57:21.685Z,60.62
2019-02-27T11:00:30.210Z,61.90
2019-02-27T11:03:36.739Z,62.59
2019-02-27T11:06:45.143Z,61.92
2019-02-27T11:09:52.030Z,62.56
2019-02-27T11:12:58.382Z,62.42
2019-02-27T11:16:05.209Z,62.07
2019-02-27T11:19:14.119Z,61.16
2019-02-27T11:22:19.688Z,60.23
2019-02-27T11:25:28.413Z,60.77
2019-02-27T11:28:34.988Z,59.79
2019-02-27T11:31:42.342Z,59.59
2019-02-27T11:34:49.892Z,60.44
2019-02-27T11:37:56.574Z,60.02
2019-02-27T11:41:03.031Z,59.80
2019-02-27T11:44:14.311Z,59.24
2019-02-27T11:47:21.219Z,59.50
2019-02-27T11:50:27.491Z,59.16
2019-02-27T11:53:35.996Z,58.82
2019-02-27T11:56:42.223Z,58.82
2019-02-27T11:59:49.087Z,58.24
2019-02-27T12:02:56.502Z,57.97
2019-02-27T12:06:05.320Z,57.60
2019-02-27T12:09:11.064Z,56.46
2019-02-27T12:12:17.730Z,56.49
2019-02-27T12:15:24.160Z,55.21
2019-02-27T12:18:32.195Z,54.96
2019-02-27T12:21:38.914Z,54.23
2019-02-27T12:24:45.698Z,54.47
2019-02-27T12:27:56.583Z,54.02
2019-02-27T12:31:03.274Z,54.25
2019-02-27T12:34:09.551Z,55.41
2019-02-27T12:37:27.517Z,55.16
2019-02-27T12:40:25.091Z,55.20
2019-02-27T12:43:31.494Z,55.51
2019-02-27T12:46:37.856Z,56.05
2019-02-27T12:49:44.471Z,56.03
2019-02-27T12:52:50.813Z,56.07
2019-02-27T12:55:57.591Z,56.09
2019-02-27T12:59:03.983Z,56.19
2019-02-27T13:02:10.939Z,55.84
2019-02-27T13:05:18.195Z,56.31
2019-02-27T13:08:24.623Z,55.91
2019-02-27T13:11:30.955Z,55.83
2019-02-27T13:14:37.447Z,55.88
2019-02-27T13:17:43.834Z,55.54
2019-02-27T13:20:50.609Z,55.35
2019-02-27T13:23:56.914Z,54.91
2019-02-27T13:27:03.328Z,55.04
2019-02-27T13:30:11.381Z,54.52
2019-02-27T13:33:17.803Z,53.91
2019-02-27T13:36:24.116Z,54.22
2019-02-27T13:39:30.456Z,53.80
2019-02-27T13:42:36.797Z,53.23
2019-02-27T13:45:47.304Z,53.29
2019-02-27T13:48:51.272Z,53.05
2019-02-27T13:51:57.761Z,52.73
2019-02-27T13:55:04.302Z,53.05
2019-02-27T13:58:11.171Z,52.35
2019-02-27T14:01:17.535Z,52.67
2019-02-27T14:04:24.287Z,52.00
2019-02-27T14:07:30.555Z,52.32
2019-02-27T14:10:36.912Z,51.62
2019-02-27T14:13:45.175Z,52.06
2019-02-27T14:16:51.742Z,51.70
2019-02-27T14:19:58.605Z,51.96
2019-02-27T14:23:07.387Z,52.28
2019-02-27T14:26:13.713Z,50.97
2019-02-27T14:29:20.242Z,51.42
2019-02-27T14:32:26.658Z,50.84
2019-02-27T14:35:36.204Z,51.13
2019-02-27T14:38:42.168Z,50.86
2019-02-27T14:41:49.830Z,50.90
2019-02-27T14:44:56.797Z,51.02
2019-02-27T14:48:03.538Z,50.77
2019-02-27T14:51:11.234Z,51.07
2019-02-27T14:54:18.102Z,51.40
2019-02-27T14:57:24.531Z,51.97
2019-02-27T15:00:31.343Z,52.09
2019-02-27T15:03:37.823Z,52.93
2019-02-27T15:06:44.466Z,52.56
2019-02-27T15:09:50.901Z,53.54
2019-02-27T15:12:57.422Z,53.64
2019-02-27T15:16:03.804Z,53.95
2019-02-27T15:19:10.275Z,54.65
2019-02-27T15:22:20.374Z,54.78
2019-02-27T15:25:27.321Z,55.13
2019-02-27T15:28:34.059Z,55.66
2019-02-27T15:31:40.443Z,54.97
2019-02-27T15:34:46.899Z,54.48
2019-02-27T15:37:53.488Z,54.29
2019-02-27T15:41:02.395Z,54.23
2019-02-27T15:44:10.455Z,54.59
2019-02-27T15:47:16.975Z,55.04
2019-02-27T15:50:24.084Z,54.87
2019-02-27T15:53:30.342Z,54.61
2019-02-27T15:56:41.466Z,55.37
2019-02-27T15:59:45.946Z,55.80
2019-02-27T16:02:52.621Z,56.24
2019-02-27T16:05:58.988Z,56.22
2019-02-27T16:09:07.042Z,55.97
2019-02-27T16:12:15.456Z,56.01
2019-02-27T16:15:22.110Z,55.50
2019-02-27T16:18:28.583Z,56.20
2019-02-27T16:21:35.052Z,56.58
2019-02-27T16:24:43.803Z,56.83
2019-02-27T16:27:49.666Z,57.01
2019-02-27T16:30:56.022Z,57.08
2019-02-27T16:34:02.355Z,56.86
2019-02-27T16:37:09.323Z,56.41
2019-02-27T16:40:18.063Z,56.29
2019-02-27T16:43:24.868Z,56.67
2019-02-27T16:46:31.288Z,56.54
2019-02-27T16:49:37.621Z,56.69
2019-02-27T16:52:44.097Z,56.48
2019-02-27T16:55:50.477Z,56.33
2019-02-27T16:58:57.948Z,56.09
2019-02-27T17:02:04.789Z,56.34
2019-02-27T17:05:11.913Z,56.45
2019-02-27T17:08:18.259Z,55.44
2019-02-27T17:11:24.629Z,55.57
2019-02-27T17:14:30.991Z,55.37
2019-02-27T17:17:37.348Z,54.57
2019-02-27T17:20:46.563Z,55.33
2019-02-27T17:23:51.587Z,55.70
2019-02-27T17:26:57.926Z,55.86
2019-02-27T17:30:04.995Z,56.28
2019-02-27T17:33:12.418Z,56.37
2019-02-27T17:36:18.915Z,56.54
2019-02-27T17:39:28.979Z,56.62
2019-02-27T17:42:33.694Z,56.70
2019-02-27T17:45:40.039Z,56.68
2019-02-27T17:48:46.672Z,56.46
2019-02-27T17:51:53.094Z,56.56
2019-02-27T17:54:59.451Z,56.33
2019-02-27T17:58:05.867Z,56.30
2019-02-27T18:01:14.630Z,55.79
2019-02-27T18:04:20.912Z,55.65
2019-02-27T18:07:34.242Z,55.52
2019-02-27T18:10:37.646Z,55.82
2019-02-27T18:13:43.671Z,55.32
2019-02-27T18:16:49.991Z,55.82
2019-02-27T18:19:56.448Z,55.99
2019-02-27T18:23:02.793Z,55.85
2019-02-27T18:26:09.064Z,56.04
2019-02-27T18:29:15.477Z,56.04
2019-02-27T18:32:22.348Z,55.53
2019-02-27T18:35:30.218Z,55.57
2019-02-27T18:38:36.702Z,55.44
2019-02-27T18:41:45.734Z,55.52
2019-02-27T18:44:51.784Z,55.58
2019-02-27T18:47:59.669Z,55.59
2019-02-27T18:51:06.416Z,55.57
2019-02-27T18:54:12.730Z,55.36
2019-02-27T18:57:19.340Z,55.64
2019-02-27T19:00:25.865Z,55.64
2019-02-27T19:03:32.692Z,55.62
2019-02-27T19:06:38.961Z,55.50
2019-02-27T19:09:47.058Z,55.38
2019-02-27T19:12:53.479Z,55.38
2019-02-27T19:15:59.726Z,55.12
2019-02-27T19:19:06.058Z,55.00
2019-02-27T19:22:13.675Z,55.15
2019-02-27T19:25:19.999Z,54.76
2019-02-27T19:28:26.593Z,54.95
2019-02-27T19:31:32.838Z,54.38
2019-02-27T19:34:41.470Z,54.42
2019-02-27T19:37:47.590Z,54.45
2019-02-27T19:40:55.551Z,54.31
2019-02-27T19:44:01.796Z,54.04
2019-02-27T19:47:09.725Z,54.13
2019-02-27T19:50:16.573Z,53.77
2019-02-27T19:53:22.912Z,54.01
2019-02-27T19:56:29.220Z,54.32
2019-02-27T19:59:35.600Z,54.07
2019-02-27T20:02:41.881Z,54.23
2019-02-27T20:05:50.661Z,54.15
2019-02-27T20:08:57.007Z,54.26
2019-02-27T20:12:03.778Z,54.05
2019-02-27T20:15:11.944Z,54.11
2019-02-27T20:18:18.399Z,54.21
2019-02-27T20:21:24.740Z,54.22
2019-02-27T20:24:32.429Z,54.06
2019-02-27T20:27:40.365Z,54.05
2019-02-27T20:30:47.191Z,54.18
2019-02-27T20:33:53.515Z,53.87
2019-02-27T20:37:00.124Z,53.94
2019-02-27T20:40:06.934Z,53.90
2019-02-27T20:43:13.889Z,53.86
2019-02-27T20:46:20.359Z,53.51
2019-02-27T20:49:26.808Z,53.13
2019-02-27T20:52:33.296Z,53.15
2019-02-27T20:55:39.726Z,53.00
2019-02-27T20:58:51.114Z,53.33
2019-02-27T21:01:55.598Z,53.54
2019-02-27T21:05:02.013Z,53.64
2019-02-27T21:08:10.468Z,53.46
2019-02-27T21:11:16.790Z,53.29
2019-02-27T21:14:24.182Z,53.34
2019-02-27T21:17:30.555Z,53.74
2019-02-27T21:20:37.565Z,53.58
2019-02-27T21:23:44.154Z,53.60
2019-02-27T21:26:50.517Z,53.91
2019-02-27T21:29:56.941Z,53.65
2019-02-27T21:33:03.357Z,54.06
2019-02-27T21:36:09.645Z,53.74
2019-02-27T21:39:15.972Z,54.59
2019-02-27T21:42:22.306Z,54.31
2019-02-27T21:45:28.837Z,54.08
2019-02-27T21:48:35.310Z,54.34
2019-02-27T21:51:41.675Z,54.83
2019-02-27T21:54:48.089Z,55.00
2019-02-27T21:57:58.048Z,55.63
2019-02-27T22:01:02.698Z,55.87
2019-02-27T22:04:10.794Z,55.61
2019-02-27T22:07:17.280Z,55.73
2019-02-27T22:10:23.693Z,55.63
2019-02-27T22:13:32.264Z,55.39
2019-02-27T22:16:38.383Z,54.85
2019-02-27T22:19:44.855Z,54.85
2019-02-27T22:22:51.677Z,55.81
2019-02-27T22:25:58.321Z,55.07
2019-02-27T22:29:04.706Z,55.12
2019-02-27T22:32:12.056Z,54.59
2019-02-27T22:35:19.576Z,53.73
2019-02-27T22:38:26.749Z,53.27
2019-02-27T22:41:33.353Z,53.52
2019-02-27T22:44:39.721Z,53.46
2019-02-27T22:47:46.126Z,52.66
2019-02-27T22:50:52.384Z,52.74
2019-02-27T22:53:59.438Z,52.52
2019-02-27T22:57:06.902Z,52.62
2019-02-27T23:01:14.856Z,52.77
2019-02-27T23:04:19.682Z,52.96
2019-02-27T23:07:26.124Z,53.39
2019-02-27T23:10:32.448Z,53.62
2019-02-27T23:13:39.059Z,52.75
2019-02-27T23:16:46.844Z,53.25
2019-02-27T23:19:53.223Z,53.01
2019-02-27T23:23:02.417Z,53.16
2019-02-27T23:26:08.619Z,52.98
2019-02-27T23:29:14.954Z,52.82
2019-02-27T23:32:21.677Z,52.76
2019-02-27T23:35:28.004Z,53.00
2019-02-27T23:38:34.904Z,53.19
2019-02-27T23:41:42.217Z,53.16
2019-02-27T23:44:48.734Z,52.86
2019-02-27T23:47:54.989Z,52.88
2019-02-27T23:51:01.468Z,53.38
2019-02-27T23:54:07.729Z,52.72
2019-02-27T23:57:14.197Z,52.84
